sensor_id;sensor_type;location;lat;lon;timestamp;pressure;altitude;pressure_sealevel;temperature
16956;BMP180;8594;52.052;8.354;2022-07-22T00:02:21;100970.00;;;21.90
16956;BMP180;8594;52.052;8.354;2022-07-22T00:04:50;100972.00;;;22.30
16956;BMP180;8594;52.052;8.354;2022-07-22T00:07:17;100967.00;;;21.80
16956;BMP180;8594;52.052;8.354;2022-07-22T00:09:43;100972.00;;;22.00
16956;BMP180;8594;52.052;8.354;2022-07-22T00:12:11;100975.00;;;21.70
16956;BMP180;8594;52.052;8.354;2022-07-22T00:14:37;100980.00;;;21.90
16956;BMP180;8594;52.052;8.354;2022-07-22T00:17:04;100987.00;;;22.20
16956;BMP180;8594;52.052;8.354;2022-07-22T00:19:31;100993.00;;;21.70
16956;BMP180;8594;52.052;8.354;2022-07-22T00:21:59;100987.00;;;21.60
16956;BMP180;8594;52.052;8.354;2022-07-22T00:24:26;100987.00;;;21.80
16956;BMP180;8594;52.052;8.354;2022-07-22T00:26:53;100986.00;;;21.20
16956;BMP180;8594;52.052;8.354;2022-07-22T00:29:20;100992.00;;;21.30
16956;BMP180;8594;52.052;8.354;2022-07-22T00:31:47;100997.00;;;21.30
16956;BMP180;8594;52.052;8.354;2022-07-22T00:34:14;101008.00;;;21.40
16956;BMP180;8594;52.052;8.354;2022-07-22T00:36:40;101000.00;;;21.20
16956;BMP180;8594;52.052;8.354;2022-07-22T00:39:09;100999.00;;;21.50
16956;BMP180;8594;52.052;8.354;2022-07-22T00:41:35;101005.00;;;21.30
16956;BMP180;8594;52.052;8.354;2022-07-22T00:44:05;101005.00;;;21.40
16956;BMP180;8594;52.052;8.354;2022-07-22T00:46:34;101003.00;;;21.60
16956;BMP180;8594;52.052;8.354;2022-07-22T00:49:06;101002.00;;;21.50
16956;BMP180;8594;52.052;8.354;2022-07-22T00:51:34;101004.00;;;21.30
16956;BMP180;8594;52.052;8.354;2022-07-22T00:54:01;100998.00;;;21.40
16956;BMP180;8594;52.052;8.354;2022-07-22T00:56:30;101001.00;;;21.50
16956;BMP180;8594;52.052;8.354;2022-07-22T00:59:03;101006.00;;;21.60
16956;BMP180;8594;52.052;8.354;2022-07-22T01:01:31;101003.00;;;21.40
16956;BMP180;8594;52.052;8.354;2022-07-22T01:03:58;101007.00;;;21.50
16956;BMP180;8594;52.052;8.354;2022-07-22T01:06:25;101013.00;;;21.60
16956;BMP180;8594;52.052;8.354;2022-07-22T01:08:52;101004.00;;;21.30
16956;BMP180;8594;52.052;8.354;2022-07-22T01:11:19;101014.00;;;21.70
16956;BMP180;8594;52.052;8.354;2022-07-22T01:13:48;101019.00;;;21.80
16956;BMP180;8594;52.052;8.354;2022-07-22T01:16:16;101010.00;;;21.90
16956;BMP180;8594;52.052;8.354;2022-07-22T01:18:44;101018.00;;;22.00
16956;BMP180;8594;52.052;8.354;2022-07-22T01:21:15;101013.00;;;21.70
16956;BMP180;8594;52.052;8.354;2022-07-22T01:23:43;101022.00;;;21.90
16956;BMP180;8594;52.052;8.354;2022-07-22T01:26:10;101016.00;;;21.30
16956;BMP180;8594;52.052;8.354;2022-07-22T01:28:37;101006.00;;;20.80
16956;BMP180;8594;52.052;8.354;2022-07-22T01:31:05;101013.00;;;20.90
16956;BMP180;8594;52.052;8.354;2022-07-22T01:33:33;101017.00;;;21.20
16956;BMP180;8594;52.052;8.354;2022-07-22T01:36:01;101014.00;;;21.10
16956;BMP180;8594;52.052;8.354;2022-07-22T01:38:29;101018.00;;;21.40
16956;BMP180;8594;52.052;8.354;2022-07-22T01:40:56;101025.00;;;21.00
16956;BMP180;8594;52.052;8.354;2022-07-22T01:43:23;101026.00;;;21.50
16956;BMP180;8594;52.052;8.354;2022-07-22T01:45:53;101028.00;;;21.10
16956;BMP180;8594;52.052;8.354;2022-07-22T01:48:21;101034.00;;;20.90
16956;BMP180;8594;52.052;8.354;2022-07-22T01:50:48;101033.00;;;20.80
16956;BMP180;8594;52.052;8.354;2022-07-22T01:53:15;101035.00;;;21.00
16956;BMP180;8594;52.052;8.354;2022-07-22T01:55:43;101042.00;;;20.50
16956;BMP180;8594;52.052;8.354;2022-07-22T01:58:10;101047.00;;;20.60
16956;BMP180;8594;52.052;8.354;2022-07-22T02:00:38;101031.00;;;20.80
16956;BMP180;8594;52.052;8.354;2022-07-22T02:03:05;101043.00;;;20.70
16956;BMP180;8594;52.052;8.354;2022-07-22T02:05:33;101039.00;;;20.60
16956;BMP180;8594;52.052;8.354;2022-07-22T02:08:01;101042.00;;;20.90
16956;BMP180;8594;52.052;8.354;2022-07-22T02:10:29;101040.00;;;20.80
16956;BMP180;8594;52.052;8.354;2022-07-22T02:12:58;101041.00;;;20.80
16956;BMP180;8594;52.052;8.354;2022-07-22T02:15:25;101044.00;;;20.90
16956;BMP180;8594;52.052;8.354;2022-07-22T02:17:53;101039.00;;;20.80
16956;BMP180;8594;52.052;8.354;2022-07-22T02:20:20;101042.00;;;21.00
16956;BMP180;8594;52.052;8.354;2022-07-22T02:22:47;101049.00;;;20.90
16956;BMP180;8594;52.052;8.354;2022-07-22T02:25:14;101048.00;;;20.80
16956;BMP180;8594;52.052;8.354;2022-07-22T02:27:42;101050.00;;;21.00
16956;BMP180;8594;52.052;8.354;2022-07-22T02:30:11;101046.00;;;20.80
16956;BMP180;8594;52.052;8.354;2022-07-22T02:32:38;101038.00;;;20.90
16956;BMP180;8594;52.052;8.354;2022-07-22T02:35:06;101036.00;;;20.60
16956;BMP180;8594;52.052;8.354;2022-07-22T02:37:34;101042.00;;;20.50
16956;BMP180;8594;52.052;8.354;2022-07-22T02:40:03;101043.00;;;20.40
16956;BMP180;8594;52.052;8.354;2022-07-22T02:42:31;101040.00;;;20.20
16956;BMP180;8594;52.052;8.354;2022-07-22T02:44:57;101029.00;;;20.50
16956;BMP180;8594;52.052;8.354;2022-07-22T02:47:26;101037.00;;;20.40
16956;BMP180;8594;52.052;8.354;2022-07-22T02:49:52;101031.00;;;20.40
16956;BMP180;8594;52.052;8.354;2022-07-22T02:52:19;101031.00;;;20.40
16956;BMP180;8594;52.052;8.354;2022-07-22T02:54:46;101025.00;;;20.10
16956;BMP180;8594;52.052;8.354;2022-07-22T02:57:13;101035.00;;;20.60
16956;BMP180;8594;52.052;8.354;2022-07-22T02:59:40;101034.00;;;20.60
16956;BMP180;8594;52.052;8.354;2022-07-22T03:02:07;101035.00;;;20.80
16956;BMP180;8594;52.052;8.354;2022-07-22T03:04:35;101035.00;;;20.80
16956;BMP180;8594;52.052;8.354;2022-07-22T03:07:02;101037.00;;;20.50
16956;BMP180;8594;52.052;8.354;2022-07-22T03:09:29;101045.00;;;20.60
16956;BMP180;8594;52.052;8.354;2022-07-22T03:11:56;101053.00;;;20.90
16956;BMP180;8594;52.052;8.354;2022-07-22T03:14:23;101043.00;;;21.00
16956;BMP180;8594;52.052;8.354;2022-07-22T03:16:49;101045.00;;;20.90
16956;BMP180;8594;52.052;8.354;2022-07-22T03:19:16;101046.00;;;21.00
16956;BMP180;8594;52.052;8.354;2022-07-22T03:21:44;101056.00;;;20.90
16956;BMP180;8594;52.052;8.354;2022-07-22T03:24:11;101049.00;;;20.70
16956;BMP180;8594;52.052;8.354;2022-07-22T03:26:38;101056.00;;;20.70
16956;BMP180;8594;52.052;8.354;2022-07-22T03:29:05;101052.00;;;20.70
16956;BMP180;8594;52.052;8.354;2022-07-22T03:31:32;101051.00;;;20.50
16956;BMP180;8594;52.052;8.354;2022-07-22T03:33:59;101062.00;;;21.10
16956;BMP180;8594;52.052;8.354;2022-07-22T03:36:26;101050.00;;;20.70
16956;BMP180;8594;52.052;8.354;2022-07-22T03:38:55;101050.00;;;20.50
16956;BMP180;8594;52.052;8.354;2022-07-22T03:41:22;101062.00;;;20.40
16956;BMP180;8594;52.052;8.354;2022-07-22T03:43:49;101056.00;;;20.70
16956;BMP180;8594;52.052;8.354;2022-07-22T03:46:16;101052.00;;;20.50
16956;BMP180;8594;52.052;8.354;2022-07-22T03:48:43;101050.00;;;20.50
16956;BMP180;8594;52.052;8.354;2022-07-22T03:51:10;101047.00;;;20.70
16956;BMP180;8594;52.052;8.354;2022-07-22T03:53:37;101047.00;;;20.50
16956;BMP180;8594;52.052;8.354;2022-07-22T03:56:06;101057.00;;;20.60
16956;BMP180;8594;52.052;8.354;2022-07-22T03:58:33;101052.00;;;20.70
16956;BMP180;8594;52.052;8.354;2022-07-22T04:01:00;101057.00;;;21.00
16956;BMP180;8594;52.052;8.354;2022-07-22T04:03:27;101055.00;;;20.90
16956;BMP180;8594;52.052;8.354;2022-07-22T04:05:54;101056.00;;;21.20
16956;BMP180;8594;52.052;8.354;2022-07-22T04:08:21;101057.00;;;20.50
16956;BMP180;8594;52.052;8.354;2022-07-22T04:10:48;101067.00;;;20.40
16956;BMP180;8594;52.052;8.354;2022-07-22T04:13:16;101067.00;;;20.40
16956;BMP180;8594;52.052;8.354;2022-07-22T04:15:42;101058.00;;;20.70
16956;BMP180;8594;52.052;8.354;2022-07-22T04:18:09;101067.00;;;20.60
16956;BMP180;8594;52.052;8.354;2022-07-22T04:20:36;101066.00;;;20.40
16956;BMP180;8594;52.052;8.354;2022-07-22T04:23:03;101059.00;;;20.50
16956;BMP180;8594;52.052;8.354;2022-07-22T04:25:29;101080.00;;;20.70
16956;BMP180;8594;52.052;8.354;2022-07-22T04:27:56;101076.00;;;20.70
16956;BMP180;8594;52.052;8.354;2022-07-22T04:30:24;101077.00;;;20.80
16956;BMP180;8594;52.052;8.354;2022-07-22T04:32:51;101074.00;;;20.40
16956;BMP180;8594;52.052;8.354;2022-07-22T04:35:18;101075.00;;;21.00
16956;BMP180;8594;52.052;8.354;2022-07-22T04:37:45;101072.00;;;20.80
16956;BMP180;8594;52.052;8.354;2022-07-22T04:40:12;101069.00;;;20.40
16956;BMP180;8594;52.052;8.354;2022-07-22T04:42:39;101081.00;;;20.60
16956;BMP180;8594;52.052;8.354;2022-07-22T04:45:06;101072.00;;;20.50
16956;BMP180;8594;52.052;8.354;2022-07-22T04:47:35;101081.00;;;20.50
16956;BMP180;8594;52.052;8.354;2022-07-22T04:50:02;101075.00;;;20.40
16956;BMP180;8594;52.052;8.354;2022-07-22T04:52:29;101074.00;;;20.50
16956;BMP180;8594;52.052;8.354;2022-07-22T04:54:55;101081.00;;;20.60
16956;BMP180;8594;52.052;8.354;2022-07-22T04:57:24;101072.00;;;20.70
16956;BMP180;8594;52.052;8.354;2022-07-22T04:59:53;101071.00;;;20.70
16956;BMP180;8594;52.052;8.354;2022-07-22T05:02:20;101074.00;;;20.80
16956;BMP180;8594;52.052;8.354;2022-07-22T05:04:48;101073.00;;;21.00
16956;BMP180;8594;52.052;8.354;2022-07-22T05:07:15;101073.00;;;20.80
16956;BMP180;8594;52.052;8.354;2022-07-22T05:09:42;101076.00;;;20.80
16956;BMP180;8594;52.052;8.354;2022-07-22T05:12:09;101079.00;;;21.00
16956;BMP180;8594;52.052;8.354;2022-07-22T05:14:36;101076.00;;;21.00
16956;BMP180;8594;52.052;8.354;2022-07-22T05:17:03;101081.00;;;20.90
16956;BMP180;8594;52.052;8.354;2022-07-22T05:19:29;101078.00;;;20.80
16956;BMP180;8594;52.052;8.354;2022-07-22T05:21:58;101075.00;;;21.20
16956;BMP180;8594;52.052;8.354;2022-07-22T05:24:24;101081.00;;;20.90
16956;BMP180;8594;52.052;8.354;2022-07-22T05:26:51;101078.00;;;20.90
16956;BMP180;8594;52.052;8.354;2022-07-22T05:29:18;101078.00;;;20.30
16956;BMP180;8594;52.052;8.354;2022-07-22T05:31:45;101085.00;;;20.60
16956;BMP180;8594;52.052;8.354;2022-07-22T05:34:12;101082.00;;;20.70
16956;BMP180;8594;52.052;8.354;2022-07-22T05:36:38;101079.00;;;20.70
16956;BMP180;8594;52.052;8.354;2022-07-22T05:39:07;101083.00;;;20.30
16956;BMP180;8594;52.052;8.354;2022-07-22T05:41:33;101084.00;;;20.60
16956;BMP180;8594;52.052;8.354;2022-07-22T05:44:00;101084.00;;;20.80
16956;BMP180;8594;52.052;8.354;2022-07-22T05:46:27;101088.00;;;20.90
16956;BMP180;8594;52.052;8.354;2022-07-22T05:48:54;101087.00;;;20.60
16956;BMP180;8594;52.052;8.354;2022-07-22T05:51:22;101091.00;;;20.70
16956;BMP180;8594;52.052;8.354;2022-07-22T05:53:49;101090.00;;;20.80
16956;BMP180;8594;52.052;8.354;2022-07-22T05:56:17;101090.00;;;20.90
16956;BMP180;8594;52.052;8.354;2022-07-22T05:58:45;101103.00;;;21.10
16956;BMP180;8594;52.052;8.354;2022-07-22T06:01:13;101095.00;;;21.20
16956;BMP180;8594;52.052;8.354;2022-07-22T06:03:39;101106.00;;;20.90
16956;BMP180;8594;52.052;8.354;2022-07-22T06:06:07;101103.00;;;20.80
16956;BMP180;8594;52.052;8.354;2022-07-22T06:08:35;101103.00;;;21.20
16956;BMP180;8594;52.052;8.354;2022-07-22T06:11:02;101112.00;;;21.00
16956;BMP180;8594;52.052;8.354;2022-07-22T06:13:31;101108.00;;;20.70
16956;BMP180;8594;52.052;8.354;2022-07-22T06:15:59;101106.00;;;20.40
16956;BMP180;8594;52.052;8.354;2022-07-22T06:18:26;101110.00;;;20.80
16956;BMP180;8594;52.052;8.354;2022-07-22T06:20:53;101100.00;;;20.80
16956;BMP180;8594;52.052;8.354;2022-07-22T06:23:22;101105.00;;;21.00
16956;BMP180;8594;52.052;8.354;2022-07-22T06:25:49;101107.00;;;20.70
16956;BMP180;8594;52.052;8.354;2022-07-22T06:28:16;101115.00;;;20.70
16956;BMP180;8594;52.052;8.354;2022-07-22T06:30:44;101114.00;;;20.80
16956;BMP180;8594;52.052;8.354;2022-07-22T06:33:11;101111.00;;;20.80
16956;BMP180;8594;52.052;8.354;2022-07-22T06:35:39;101117.00;;;20.90
16956;BMP180;8594;52.052;8.354;2022-07-22T06:38:07;101117.00;;;21.00
16956;BMP180;8594;52.052;8.354;2022-07-22T06:40:34;101109.00;;;20.60
16956;BMP180;8594;52.052;8.354;2022-07-22T06:43:02;101114.00;;;20.70
16956;BMP180;8594;52.052;8.354;2022-07-22T06:45:29;101112.00;;;21.00
16956;BMP180;8594;52.052;8.354;2022-07-22T06:47:57;101116.00;;;20.90
16956;BMP180;8594;52.052;8.354;2022-07-22T06:50:25;101116.00;;;21.10
16956;BMP180;8594;52.052;8.354;2022-07-22T06:52:51;101121.00;;;20.90
16956;BMP180;8594;52.052;8.354;2022-07-22T06:55:18;101114.00;;;21.10
16956;BMP180;8594;52.052;8.354;2022-07-22T06:57:45;101117.00;;;21.00
16956;BMP180;8594;52.052;8.354;2022-07-22T07:00:13;101116.00;;;21.10
16956;BMP180;8594;52.052;8.354;2022-07-22T07:02:40;101119.00;;;21.10
16956;BMP180;8594;52.052;8.354;2022-07-22T07:05:09;101110.00;;;21.20
16956;BMP180;8594;52.052;8.354;2022-07-22T07:07:36;101115.00;;;21.00
16956;BMP180;8594;52.052;8.354;2022-07-22T07:10:04;101118.00;;;21.40
16956;BMP180;8594;52.052;8.354;2022-07-22T07:12:31;101110.00;;;21.60
16956;BMP180;8594;52.052;8.354;2022-07-22T07:14:58;101101.00;;;21.30
16956;BMP180;8594;52.052;8.354;2022-07-22T07:17:24;101116.00;;;21.40
16956;BMP180;8594;52.052;8.354;2022-07-22T07:19:51;101102.00;;;21.60
16956;BMP180;8594;52.052;8.354;2022-07-22T07:22:19;101109.00;;;21.60
16956;BMP180;8594;52.052;8.354;2022-07-22T07:24:46;101095.00;;;21.70
16956;BMP180;8594;52.052;8.354;2022-07-22T07:27:13;101089.00;;;21.50
16956;BMP180;8594;52.052;8.354;2022-07-22T07:29:40;101095.00;;;21.80
16956;BMP180;8594;52.052;8.354;2022-07-22T07:32:07;101101.00;;;21.70
16956;BMP180;8594;52.052;8.354;2022-07-22T07:34:35;101090.00;;;21.60
16956;BMP180;8594;52.052;8.354;2022-07-22T07:37:02;101089.00;;;21.00
16956;BMP180;8594;52.052;8.354;2022-07-22T07:39:30;101092.00;;;21.40
16956;BMP180;8594;52.052;8.354;2022-07-22T07:41:57;101091.00;;;21.70
16956;BMP180;8594;52.052;8.354;2022-07-22T07:44:24;101090.00;;;22.00
16956;BMP180;8594;52.052;8.354;2022-07-22T07:46:51;101095.00;;;22.30
16956;BMP180;8594;52.052;8.354;2022-07-22T07:49:18;101091.00;;;22.40
16956;BMP180;8594;52.052;8.354;2022-07-22T07:51:45;101091.00;;;22.40
16956;BMP180;8594;52.052;8.354;2022-07-22T07:54:12;101100.00;;;21.70
16956;BMP180;8594;52.052;8.354;2022-07-22T07:56:40;101096.00;;;22.20
16956;BMP180;8594;52.052;8.354;2022-07-22T07:59:07;101101.00;;;22.20
16956;BMP180;8594;52.052;8.354;2022-07-22T08:01:34;101096.00;;;22.30
16956;BMP180;8594;52.052;8.354;2022-07-22T08:04:01;101108.00;;;22.50
16956;BMP180;8594;52.052;8.354;2022-07-22T08:06:28;101106.00;;;22.00
16956;BMP180;8594;52.052;8.354;2022-07-22T08:08:55;101101.00;;;22.40
16956;BMP180;8594;52.052;8.354;2022-07-22T08:11:22;101107.00;;;22.40
16956;BMP180;8594;52.052;8.354;2022-07-22T08:13:50;101111.00;;;22.20
16956;BMP180;8594;52.052;8.354;2022-07-22T08:16:17;101108.00;;;22.30
16956;BMP180;8594;52.052;8.354;2022-07-22T08:18:44;101099.00;;;22.40
16956;BMP180;8594;52.052;8.354;2022-07-22T08:21:11;101099.00;;;22.40
16956;BMP180;8594;52.052;8.354;2022-07-22T08:23:37;101105.00;;;22.20
16956;BMP180;8594;52.052;8.354;2022-07-22T08:26:04;101106.00;;;22.50
16956;BMP180;8594;52.052;8.354;2022-07-22T08:28:31;101106.00;;;22.60
16956;BMP180;8594;52.052;8.354;2022-07-22T08:30:59;101106.00;;;22.70
16956;BMP180;8594;52.052;8.354;2022-07-22T08:33:26;101103.00;;;22.40
16956;BMP180;8594;52.052;8.354;2022-07-22T08:35:53;101107.00;;;22.20
16956;BMP180;8594;52.052;8.354;2022-07-22T08:38:20;101104.00;;;21.90
16956;BMP180;8594;52.052;8.354;2022-07-22T08:40:47;101104.00;;;22.50
16956;BMP180;8594;52.052;8.354;2022-07-22T08:43:14;101111.00;;;22.50
16956;BMP180;8594;52.052;8.354;2022-07-22T08:45:41;101104.00;;;22.50
16956;BMP180;8594;52.052;8.354;2022-07-22T08:48:09;101102.00;;;22.90
16956;BMP180;8594;52.052;8.354;2022-07-22T08:50:36;101108.00;;;23.10
16956;BMP180;8594;52.052;8.354;2022-07-22T08:53:03;101107.00;;;23.10
16956;BMP180;8594;52.052;8.354;2022-07-22T08:55:30;101113.00;;;23.00
16956;BMP180;8594;52.052;8.354;2022-07-22T08:57:57;101112.00;;;22.50
16956;BMP180;8594;52.052;8.354;2022-07-22T09:00:24;101104.00;;;22.80
16956;BMP180;8594;52.052;8.354;2022-07-22T09:02:50;101102.00;;;22.60
16956;BMP180;8594;52.052;8.354;2022-07-22T09:05:19;101108.00;;;22.80
16956;BMP180;8594;52.052;8.354;2022-07-22T09:07:46;101108.00;;;22.80
16956;BMP180;8594;52.052;8.354;2022-07-22T09:10:16;101103.00;;;23.10
16956;BMP180;8594;52.052;8.354;2022-07-22T09:12:54;101108.00;;;23.30
16956;BMP180;8594;52.052;8.354;2022-07-22T09:15:28;101101.00;;;23.30
16956;BMP180;8594;52.052;8.354;2022-07-22T09:17:55;101109.00;;;23.20
16956;BMP180;8594;52.052;8.354;2022-07-22T09:20:26;101115.00;;;23.30
16956;BMP180;8594;52.052;8.354;2022-07-22T09:22:53;101111.00;;;23.20
16956;BMP180;8594;52.052;8.354;2022-07-22T09:25:28;101119.00;;;23.60
16956;BMP180;8594;52.052;8.354;2022-07-22T09:28:10;101122.00;;;23.40
16956;BMP180;8594;52.052;8.354;2022-07-22T09:30:40;101121.00;;;23.90
16956;BMP180;8594;52.052;8.354;2022-07-22T09:33:08;101122.00;;;23.40
16956;BMP180;8594;52.052;8.354;2022-07-22T09:35:37;101116.00;;;23.10
16956;BMP180;8594;52.052;8.354;2022-07-22T09:38:08;101115.00;;;22.70
16956;BMP180;8594;52.052;8.354;2022-07-22T09:40:37;101117.00;;;22.90
16956;BMP180;8594;52.052;8.354;2022-07-22T09:43:06;101118.00;;;23.10
16956;BMP180;8594;52.052;8.354;2022-07-22T09:45:46;101115.00;;;22.90
16956;BMP180;8594;52.052;8.354;2022-07-22T09:48:15;101117.00;;;23.50
16956;BMP180;8594;52.052;8.354;2022-07-22T09:50:45;101119.00;;;23.40
16956;BMP180;8594;52.052;8.354;2022-07-22T09:53:13;101133.00;;;23.40
16956;BMP180;8594;52.052;8.354;2022-07-22T09:55:41;101126.00;;;23.40
16956;BMP180;8594;52.052;8.354;2022-07-22T09:58:08;101121.00;;;23.50
16956;BMP180;8594;52.052;8.354;2022-07-22T10:00:37;101118.00;;;23.60
16956;BMP180;8594;52.052;8.354;2022-07-22T10:03:07;101118.00;;;23.40
16956;BMP180;8594;52.052;8.354;2022-07-22T10:05:37;101114.00;;;23.30
16956;BMP180;8594;52.052;8.354;2022-07-22T10:08:07;101120.00;;;23.20
16956;BMP180;8594;52.052;8.354;2022-07-22T10:10:37;101119.00;;;22.90
16956;BMP180;8594;52.052;8.354;2022-07-22T10:13:06;101122.00;;;23.50
16956;BMP180;8594;52.052;8.354;2022-07-22T10:15:34;101120.00;;;23.00
16956;BMP180;8594;52.052;8.354;2022-07-22T10:18:06;101127.00;;;23.40
16956;BMP180;8594;52.052;8.354;2022-07-22T10:20:34;101118.00;;;23.50
16956;BMP180;8594;52.052;8.354;2022-07-22T10:23:03;101121.00;;;23.30
16956;BMP180;8594;52.052;8.354;2022-07-22T10:25:50;101130.00;;;23.20
16956;BMP180;8594;52.052;8.354;2022-07-22T10:28:23;101127.00;;;23.40
16956;BMP180;8594;52.052;8.354;2022-07-22T10:30:51;101123.00;;;23.00
16956;BMP180;8594;52.052;8.354;2022-07-22T10:33:19;101131.00;;;22.60
16956;BMP180;8594;52.052;8.354;2022-07-22T10:35:55;101121.00;;;22.60
16956;BMP180;8594;52.052;8.354;2022-07-22T10:38:23;101131.00;;;22.80
16956;BMP180;8594;52.052;8.354;2022-07-22T10:40:56;101127.00;;;23.10
16956;BMP180;8594;52.052;8.354;2022-07-22T10:43:25;101134.00;;;23.00
16956;BMP180;8594;52.052;8.354;2022-07-22T10:45:55;101131.00;;;23.00
16956;BMP180;8594;52.052;8.354;2022-07-22T10:48:25;101129.00;;;23.00
16956;BMP180;8594;52.052;8.354;2022-07-22T10:51:12;101122.00;;;22.70
16956;BMP180;8594;52.052;8.354;2022-07-22T10:53:43;101113.00;;;23.10
16956;BMP180;8594;52.052;8.354;2022-07-22T10:56:22;101124.00;;;22.80
16956;BMP180;8594;52.052;8.354;2022-07-22T10:58:54;101116.00;;;22.80
16956;BMP180;8594;52.052;8.354;2022-07-22T11:01:27;101115.00;;;23.30
16956;BMP180;8594;52.052;8.354;2022-07-22T11:03:55;101123.00;;;23.50
16956;BMP180;8594;52.052;8.354;2022-07-22T11:06:27;101126.00;;;23.40
16956;BMP180;8594;52.052;8.354;2022-07-22T11:08:57;101124.00;;;22.80
16956;BMP180;8594;52.052;8.354;2022-07-22T11:11:40;101122.00;;;23.10
16956;BMP180;8594;52.052;8.354;2022-07-22T11:14:19;101117.00;;;23.40
16956;BMP180;8594;52.052;8.354;2022-07-22T11:16:49;101114.00;;;22.40
16956;BMP180;8594;52.052;8.354;2022-07-22T11:19:22;101123.00;;;23.00
16956;BMP180;8594;52.052;8.354;2022-07-22T11:21:52;101119.00;;;22.90
16956;BMP180;8594;52.052;8.354;2022-07-22T11:24:20;101118.00;;;23.00
16956;BMP180;8594;52.052;8.354;2022-07-22T11:26:51;101116.00;;;23.10
16956;BMP180;8594;52.052;8.354;2022-07-22T11:29:25;101120.00;;;22.90
16956;BMP180;8594;52.052;8.354;2022-07-22T11:31:53;101115.00;;;23.30
16956;BMP180;8594;52.052;8.354;2022-07-22T11:34:20;101113.00;;;23.20
16956;BMP180;8594;52.052;8.354;2022-07-22T11:36:48;101115.00;;;23.50
16956;BMP180;8594;52.052;8.354;2022-07-22T11:39:20;101113.00;;;22.80
16956;BMP180;8594;52.052;8.354;2022-07-22T11:41:49;101106.00;;;23.30
16956;BMP180;8594;52.052;8.354;2022-07-22T11:44:19;101106.00;;;23.40
16956;BMP180;8594;52.052;8.354;2022-07-22T11:46:48;101099.00;;;23.30
16956;BMP180;8594;52.052;8.354;2022-07-22T11:49:19;101091.00;;;22.70
16956;BMP180;8594;52.052;8.354;2022-07-22T11:51:47;101089.00;;;22.70
16956;BMP180;8594;52.052;8.354;2022-07-22T11:54:14;101084.00;;;23.00
16956;BMP180;8594;52.052;8.354;2022-07-22T11:56:41;101088.00;;;23.00
16956;BMP180;8594;52.052;8.354;2022-07-22T11:59:13;101074.00;;;23.30
16956;BMP180;8594;52.052;8.354;2022-07-22T12:01:40;101083.00;;;23.50
16956;BMP180;8594;52.052;8.354;2022-07-22T12:04:11;101085.00;;;23.70
16956;BMP180;8594;52.052;8.354;2022-07-22T12:06:41;101089.00;;;23.80
16956;BMP180;8594;52.052;8.354;2022-07-22T12:09:12;101091.00;;;23.50
16956;BMP180;8594;52.052;8.354;2022-07-22T12:11:43;101100.00;;;23.70
16956;BMP180;8594;52.052;8.354;2022-07-22T12:14:14;101083.00;;;23.50
16956;BMP180;8594;52.052;8.354;2022-07-22T12:16:43;101083.00;;;23.50
16956;BMP180;8594;52.052;8.354;2022-07-22T12:19:17;101086.00;;;23.10
16956;BMP180;8594;52.052;8.354;2022-07-22T12:21:52;101104.00;;;23.20
16956;BMP180;8594;52.052;8.354;2022-07-22T12:24:31;101093.00;;;23.50
16956;BMP180;8594;52.052;8.354;2022-07-22T12:27:00;101090.00;;;23.50
16956;BMP180;8594;52.052;8.354;2022-07-22T12:29:30;101088.00;;;23.40
16956;BMP180;8594;52.052;8.354;2022-07-22T12:32:03;101085.00;;;23.70
16956;BMP180;8594;52.052;8.354;2022-07-22T12:34:33;101091.00;;;23.50
16956;BMP180;8594;52.052;8.354;2022-07-22T12:37:11;101089.00;;;22.90
16956;BMP180;8594;52.052;8.354;2022-07-22T12:39:39;101083.00;;;23.30
16956;BMP180;8594;52.052;8.354;2022-07-22T12:42:17;101081.00;;;23.10
16956;BMP180;8594;52.052;8.354;2022-07-22T12:44:54;101082.00;;;23.50
16956;BMP180;8594;52.052;8.354;2022-07-22T12:47:47;101073.00;;;23.50
16956;BMP180;8594;52.052;8.354;2022-07-22T12:50:22;101070.00;;;23.70
16956;BMP180;8594;52.052;8.354;2022-07-22T12:52:51;101076.00;;;23.40
16956;BMP180;8594;52.052;8.354;2022-07-22T12:55:20;101080.00;;;23.10
16956;BMP180;8594;52.052;8.354;2022-07-22T12:57:48;101078.00;;;23.30
16956;BMP180;8594;52.052;8.354;2022-07-22T13:00:22;101069.00;;;24.10
16956;BMP180;8594;52.052;8.354;2022-07-22T13:02:50;101064.00;;;24.40
16956;BMP180;8594;52.052;8.354;2022-07-22T13:05:18;101062.00;;;23.70
16956;BMP180;8594;52.052;8.354;2022-07-22T13:07:45;101064.00;;;24.00
16956;BMP180;8594;52.052;8.354;2022-07-22T13:10:14;101059.00;;;24.00
16956;BMP180;8594;52.052;8.354;2022-07-22T13:12:42;101059.00;;;24.10
16956;BMP180;8594;52.052;8.354;2022-07-22T13:15:10;101056.00;;;23.90
16956;BMP180;8594;52.052;8.354;2022-07-22T13:17:39;101051.00;;;24.00
16956;BMP180;8594;52.052;8.354;2022-07-22T13:20:08;101048.00;;;24.70
16956;BMP180;8594;52.052;8.354;2022-07-22T13:22:35;101056.00;;;24.90
16956;BMP180;8594;52.052;8.354;2022-07-22T13:25:04;101048.00;;;24.80
16956;BMP180;8594;52.052;8.354;2022-07-22T13:27:31;101049.00;;;24.00
16956;BMP180;8594;52.052;8.354;2022-07-22T13:29:58;101059.00;;;24.40
16956;BMP180;8594;52.052;8.354;2022-07-22T13:32:25;101070.00;;;24.40
16956;BMP180;8594;52.052;8.354;2022-07-22T13:34:53;101056.00;;;24.40
16956;BMP180;8594;52.052;8.354;2022-07-22T13:37:20;101057.00;;;24.40
16956;BMP180;8594;52.052;8.354;2022-07-22T13:39:47;101063.00;;;24.00
16956;BMP180;8594;52.052;8.354;2022-07-22T13:42:17;101058.00;;;23.80
16956;BMP180;8594;52.052;8.354;2022-07-22T13:44:45;101054.00;;;24.30
16956;BMP180;8594;52.052;8.354;2022-07-22T13:47:12;101056.00;;;23.80
16956;BMP180;8594;52.052;8.354;2022-07-22T13:49:40;101054.00;;;23.60
16956;BMP180;8594;52.052;8.354;2022-07-22T13:52:08;101049.00;;;23.90
16956;BMP180;8594;52.052;8.354;2022-07-22T13:54:35;101052.00;;;23.40
16956;BMP180;8594;52.052;8.354;2022-07-22T13:57:04;101053.00;;;24.20
16956;BMP180;8594;52.052;8.354;2022-07-22T13:59:31;101053.00;;;24.00
16956;BMP180;8594;52.052;8.354;2022-07-22T14:01:58;101048.00;;;23.60
16956;BMP180;8594;52.052;8.354;2022-07-22T14:04:27;101044.00;;;24.00
16956;BMP180;8594;52.052;8.354;2022-07-22T14:06:54;101044.00;;;24.20
16956;BMP180;8594;52.052;8.354;2022-07-22T14:09:22;101039.00;;;23.90
16956;BMP180;8594;52.052;8.354;2022-07-22T14:11:50;101036.00;;;23.60
16956;BMP180;8594;52.052;8.354;2022-07-22T14:14:17;101033.00;;;23.80
16956;BMP180;8594;52.052;8.354;2022-07-22T14:16:43;101030.00;;;23.90